createdAt,value
2016-07-06T00:00:53.422Z,0
2016-07-06T00:01:53.429Z,0
2016-07-06T00:02:53.470Z,0
2016-07-06T00:03:53.491Z,0
2016-07-06T00:04:53.499Z,0
2016-07-06T00:05:53.523Z,0
2016-07-06T00:06:53.539Z,0
2016-07-06T00:07:53.563Z,0
2016-07-06T00:08:53.573Z,0
2016-07-06T00:09:53.595Z,0
2016-07-06T00:10:53.627Z,0
2016-07-06T00:11:53.635Z,0
2016-07-06T00:12:53.650Z,0
2016-07-06T00:13:53.660Z,0
2016-07-06T00:14:53.682Z,0
2016-07-06T00:15:53.713Z,0
2016-07-06T00:16:53.736Z,0
2016-07-06T00:17:53.745Z,0
2016-07-06T00:18:53.755Z,0
2016-07-06T00:19:53.756Z,0
2016-07-06T00:20:53.799Z,0
2016-07-06T00:21:53.814Z,0
2016-07-06T00:22:53.820Z,0
2016-07-06T00:23:53.846Z,0
2016-07-06T00:24:53.849Z,0
2016-07-06T00:25:53.863Z,0
2016-07-06T00:26:53.886Z,0
2016-07-06T00:27:53.902Z,0
2016-07-06T00:28:53.942Z,0
2016-07-06T00:29:54.570Z,0
2016-07-06T00:30:53.966Z,0
2016-07-06T00:31:53.996Z,0
2016-07-06T00:32:54.011Z,0
2016-07-06T00:33:54.027Z,0
2016-07-06T00:34:54.020Z,0
2016-07-06T00:35:54.063Z,0
2016-07-06T00:36:54.071Z,0
2016-07-06T00:37:54.166Z,0
2016-07-06T00:38:54.169Z,0
2016-07-06T00:39:54.160Z,0
2016-07-06T00:40:54.174Z,0
2016-07-06T00:41:54.203Z,0
2016-07-06T00:42:54.198Z,0
2016-07-06T00:43:54.209Z,0
2016-07-06T00:44:54.222Z,0
2016-07-06T00:45:54.241Z,0
2016-07-06T00:46:54.283Z,0
2016-07-06T00:47:54.319Z,0
2016-07-06T00:48:54.309Z,0
2016-07-06T00:49:54.356Z,0
2016-07-06T00:50:54.339Z,0
2016-07-06T00:51:54.431Z,0
2016-07-06T00:52:54.370Z,0
2016-07-06T00:53:54.424Z,0
2016-07-06T00:54:54.407Z,0
2016-07-06T00:55:54.474Z,0
2016-07-06T00:56:54.450Z,0
2016-07-06T00:57:54.515Z,0
2016-07-06T00:58:54.746Z,0
2016-07-06T00:59:54.512Z,0
2016-07-06T01:00:54.535Z,0
2016-07-06T01:01:54.536Z,0
2016-07-06T01:02:54.554Z,0
2016-07-06T01:03:54.571Z,0
2016-07-06T01:04:54.596Z,0
2016-07-06T01:05:54.841Z,0
2016-07-06T01:06:54.625Z,0
2016-07-06T01:07:54.995Z,0
2016-07-06T01:08:54.909Z,0
2016-07-06T01:09:54.978Z,0
2016-07-06T01:10:54.754Z,0
2016-07-06T01:11:54.719Z,0
2016-07-06T01:12:54.735Z,0
2016-07-06T01:13:54.759Z,0
2016-07-06T01:14:54.761Z,0
2016-07-06T01:15:54.784Z,0
2016-07-06T01:16:54.790Z,0
2016-07-06T01:17:54.815Z,0
2016-07-06T01:18:54.813Z,0
2016-07-06T01:19:54.835Z,0
2016-07-06T01:20:54.868Z,0
2016-07-06T01:21:54.871Z,0
2016-07-06T01:22:54.923Z,0
2016-07-06T01:23:54.925Z,0
2016-07-06T01:24:54.937Z,0
2016-07-06T01:25:54.951Z,0
2016-07-06T01:26:54.980Z,0
2016-07-06T01:27:55.005Z,0
2016-07-06T01:28:55.002Z,0
2016-07-06T01:29:55.038Z,0
2016-07-06T01:30:55.050Z,0
2016-07-06T01:31:55.061Z,0
2016-07-06T01:32:55.083Z,0
2016-07-06T01:33:55.087Z,0
2016-07-06T01:34:55.122Z,0
2016-07-06T01:35:55.135Z,0
2016-07-06T01:36:55.159Z,0
2016-07-06T01:37:55.183Z,0
2016-07-06T01:38:55.212Z,0
2016-07-06T01:39:55.202Z,0
2016-07-06T01:40:55.228Z,0
2016-07-06T01:41:55.251Z,0
2016-07-06T01:42:55.261Z,0
2016-07-06T01:43:55.280Z,0
2016-07-06T01:44:55.301Z,0
2016-07-06T01:45:55.308Z,0
2016-07-06T01:46:55.346Z,0
2016-07-06T01:47:55.361Z,0
2016-07-06T01:48:55.382Z,0
2016-07-06T01:49:55.381Z,0
2016-07-06T01:50:55.410Z,0
2016-07-06T01:51:55.440Z,0
2016-07-06T01:52:55.447Z,0
2016-07-06T01:53:55.438Z,0
2016-07-06T01:54:55.476Z,0
2016-07-06T01:55:55.476Z,0
2016-07-06T01:56:55.491Z,0
2016-07-06T01:57:55.520Z,0
2016-07-06T01:58:55.549Z,0
2016-07-06T01:59:55.578Z,0
2016-07-06T02:00:55.592Z,0
2016-07-06T02:01:55.603Z,0
2016-07-06T02:02:55.628Z,0
2016-07-06T02:03:55.649Z,0
2016-07-06T02:04:55.665Z,0
2016-07-06T02:05:55.685Z,0
2016-07-06T02:06:55.702Z,0
2016-07-06T02:07:55.722Z,0
2016-07-06T02:08:55.728Z,0
2016-07-06T02:09:55.728Z,0
2016-07-06T02:10:55.757Z,0
2016-07-06T02:11:55.786Z,0
2016-07-06T02:12:55.796Z,0
2016-07-06T02:13:55.823Z,0
2016-07-06T02:14:55.831Z,0
2016-07-06T02:15:55.856Z,0
2016-07-06T02:16:55.859Z,0
2016-07-06T02:17:55.893Z,0
2016-07-06T02:18:55.908Z,0
2016-07-06T02:19:55.929Z,0
2016-07-06T02:20:55.944Z,0
2016-07-06T02:21:55.961Z,0
2016-07-06T02:22:55.982Z,0
2016-07-06T02:23:55.989Z,0
2016-07-06T02:24:56.017Z,0
2016-07-06T02:25:56.032Z,0
2016-07-06T02:26:56.058Z,0
2016-07-06T02:27:56.071Z,0
2016-07-06T02:28:56.089Z,0
2016-07-06T02:29:56.086Z,0
2016-07-06T02:30:56.107Z,0
2016-07-06T02:31:56.133Z,0
2016-07-06T02:32:56.138Z,0
2016-07-06T02:33:56.161Z,0
2016-07-06T02:34:56.164Z,0
2016-07-06T02:35:56.191Z,0
2016-07-06T02:36:56.201Z,4
2016-07-06T02:37:56.235Z,4
2016-07-06T02:38:56.254Z,0
2016-07-06T02:39:56.272Z,4
2016-07-06T02:40:56.295Z,4
2016-07-06T02:41:56.302Z,8
2016-07-06T02:42:56.326Z,4
2016-07-06T02:43:56.339Z,8
2016-07-06T02:44:56.358Z,8
2016-07-06T02:45:56.356Z,8
2016-07-06T02:46:56.395Z,12
2016-07-06T02:47:56.374Z,8
2016-07-06T02:48:56.441Z,12
2016-07-06T02:49:56.410Z,8
2016-07-06T02:50:56.458Z,12
2016-07-06T02:51:56.478Z,8
2016-07-06T02:52:56.506Z,12
2016-07-06T02:53:56.522Z,16
2016-07-06T02:54:56.536Z,20
2016-07-06T02:55:56.539Z,24
2016-07-06T02:56:56.575Z,24
2016-07-06T02:57:56.627Z,28
2016-07-06T02:58:56.596Z,28
2016-07-06T02:59:56.624Z,28
2016-07-06T03:00:56.634Z,32
2016-07-06T03:01:56.658Z,36
2016-07-06T03:02:56.673Z,36
2016-07-06T03:03:56.732Z,40
2016-07-06T03:04:56.705Z,44
2016-07-06T03:05:56.770Z,40
2016-07-06T03:06:56.734Z,40
2016-07-06T03:07:56.851Z,44
2016-07-06T03:08:56.759Z,48
2016-07-06T03:09:56.838Z,48
2016-07-06T03:10:56.792Z,52
2016-07-06T03:11:56.855Z,60
2016-07-06T03:12:56.828Z,64
2016-07-06T03:13:56.859Z,60
2016-07-06T03:14:56.857Z,68
2016-07-06T03:15:56.905Z,68
2016-07-06T03:16:56.899Z,72
2016-07-06T03:17:56.920Z,64
2016-07-06T03:18:56.932Z,56
2016-07-06T03:19:56.956Z,60
2016-07-06T03:20:56.963Z,60
2016-07-06T03:21:57.020Z,68
2016-07-06T03:22:56.995Z,76
2016-07-06T03:23:57.036Z,84
2016-07-06T03:24:57.039Z,104
2016-07-06T03:25:57.076Z,124
2016-07-06T03:26:57.078Z,140
2016-07-06T03:27:57.144Z,144
2016-07-06T03:28:57.176Z,140
2016-07-06T03:29:57.179Z,148
2016-07-06T03:30:57.177Z,156
2016-07-06T03:31:57.231Z,176
2016-07-06T03:32:57.246Z,184
2016-07-06T03:33:57.247Z,196
2016-07-06T03:34:57.250Z,204
2016-07-06T03:35:57.249Z,216
2016-07-06T03:36:57.246Z,240
2016-07-06T03:37:57.256Z,272
2016-07-06T03:38:57.295Z,300
2016-07-06T03:39:57.315Z,292
2016-07-06T03:40:57.350Z,284
2016-07-06T03:41:57.344Z,256
2016-07-06T03:42:57.369Z,224
2016-07-06T03:43:57.375Z,236
2016-07-06T03:44:57.383Z,236
2016-07-06T03:45:57.419Z,216
2016-07-06T03:46:57.437Z,200
2016-07-06T03:47:57.429Z,200
2016-07-06T03:48:57.458Z,228
2016-07-06T03:49:57.477Z,228
2016-07-06T03:50:57.486Z,216
2016-07-06T03:51:57.522Z,208
2016-07-06T03:52:57.518Z,200
2016-07-06T03:53:57.555Z,220
2016-07-06T03:54:57.583Z,276
2016-07-06T03:55:57.596Z,276
2016-07-06T03:56:57.613Z,252
2016-07-06T03:57:57.603Z,224
2016-07-06T03:58:57.625Z,252
2016-07-06T03:59:57.657Z,280
2016-07-06T04:00:57.712Z,292
2016-07-06T04:01:57.695Z,308
2016-07-06T04:02:57.702Z,332
2016-07-06T04:03:57.740Z,372
2016-07-06T04:04:57.758Z,376
2016-07-06T04:05:57.827Z,396
2016-07-06T04:06:57.816Z,400
2016-07-06T04:07:57.832Z,368
2016-07-06T04:08:57.823Z,336
2016-07-06T04:09:57.845Z,340
2016-07-06T04:10:57.847Z,336
2016-07-06T04:11:57.872Z,332
2016-07-06T04:12:57.894Z,392
2016-07-06T04:13:57.911Z,476
2016-07-06T04:14:57.913Z,512
2016-07-06T04:15:57.953Z,524
2016-07-06T04:16:57.951Z,504
2016-07-06T04:17:57.966Z,520
2016-07-06T04:18:57.967Z,436
2016-07-06T04:19:58.018Z,408
2016-07-06T04:20:58.027Z,428
2016-07-06T04:21:58.050Z,452
2016-07-06T04:22:58.063Z,580
2016-07-06T04:23:58.085Z,688
2016-07-06T04:24:58.108Z,736
2016-07-06T04:25:58.121Z,768
2016-07-06T04:26:58.114Z,704
2016-07-06T04:27:58.150Z,664
2016-07-06T04:28:58.167Z,692
2016-07-06T04:29:58.161Z,596
2016-07-06T04:30:58.199Z,492
2016-07-06T04:31:58.215Z,500
2016-07-06T04:32:58.252Z,516
2016-07-06T04:33:58.264Z,576
2016-07-06T04:34:58.273Z,476
2016-07-06T04:35:58.288Z,424
2016-07-06T04:36:58.303Z,424
2016-07-06T04:37:58.344Z,460
2016-07-06T04:38:58.348Z,476
2016-07-06T04:39:58.364Z,488
2016-07-06T04:40:58.353Z,456
2016-07-06T04:41:58.382Z,456
2016-07-06T04:42:58.413Z,572
2016-07-06T04:43:58.408Z,608
2016-07-06T04:44:58.437Z,460
2016-07-06T04:45:58.462Z,468
2016-07-06T04:46:58.454Z,484
2016-07-06T04:47:58.510Z,500
2016-07-06T04:48:58.529Z,548
2016-07-06T04:49:58.537Z,656
2016-07-06T04:50:58.555Z,700
2016-07-06T04:51:58.564Z,724
2016-07-06T04:52:58.598Z,764
2016-07-06T04:53:58.624Z,832
2016-07-06T04:54:58.677Z,824
2016-07-06T04:55:58.660Z,924
2016-07-06T04:56:58.709Z,1076
2016-07-06T04:57:58.717Z,1176
2016-07-06T04:58:58.756Z,1120
2016-07-06T04:59:58.762Z,924
2016-07-06T05:00:58.775Z,908
2016-07-06T05:01:58.758Z,1040
2016-07-06T05:02:58.777Z,956
2016-07-06T05:03:58.777Z,860
2016-07-06T05:04:58.804Z,968
2016-07-06T05:05:58.813Z,904
2016-07-06T05:06:58.833Z,816
2016-07-06T05:07:58.858Z,748
2016-07-06T05:08:58.874Z,668
2016-07-06T05:09:58.896Z,600
2016-07-06T05:10:58.902Z,560
2016-07-06T05:11:58.913Z,720
2016-07-06T05:12:58.939Z,1016
2016-07-06T05:13:58.966Z,1056
2016-07-06T05:14:58.979Z,972
2016-07-06T05:15:58.984Z,972
2016-07-06T05:16:59.018Z,1184
2016-07-06T05:17:59.025Z,1312
2016-07-06T05:18:59.061Z,1432
2016-07-06T05:19:59.063Z,1416
2016-07-06T05:20:59.101Z,1264
2016-07-06T05:21:59.110Z,1292
2016-07-06T05:22:59.118Z,1444
2016-07-06T05:23:59.139Z,1556
2016-07-06T05:24:59.153Z,1708
2016-07-06T05:25:59.163Z,1868
2016-07-06T05:26:59.193Z,1932
2016-07-06T05:27:59.224Z,2220
2016-07-06T05:28:59.227Z,2316
2016-07-06T05:29:59.250Z,2572
2016-07-06T05:30:59.255Z,2500
2016-07-06T05:31:59.291Z,2348
2016-07-06T05:32:59.307Z,2296
2016-07-06T05:33:59.318Z,2456
2016-07-06T05:34:59.343Z,2772
2016-07-06T05:35:59.350Z,2336
2016-07-06T05:36:59.370Z,1680
2016-07-06T05:37:59.385Z,1396
2016-07-06T05:38:59.415Z,1444
2016-07-06T05:39:59.422Z,2120
2016-07-06T05:40:59.437Z,2396
2016-07-06T05:41:59.474Z,2332
2016-07-06T05:42:59.471Z,1980
2016-07-06T05:43:59.500Z,1924
2016-07-06T05:44:59.510Z,2388
2016-07-06T05:45:59.541Z,2864
2016-07-06T05:46:59.566Z,3344
2016-07-06T05:47:59.562Z,4024
2016-07-06T05:48:59.578Z,4120
2016-07-06T05:49:59.606Z,4432
2016-07-06T05:50:59.623Z,4924
2016-07-06T05:51:59.645Z,5144
2016-07-06T05:52:59.665Z,6192
2016-07-06T05:53:59.677Z,8060
2016-07-06T05:54:59.695Z,6336
2016-07-06T05:55:59.719Z,5908
2016-07-06T05:56:59.731Z,4496
2016-07-06T05:57:59.744Z,3820
2016-07-06T05:58:59.734Z,3656
2016-07-06T05:59:59.759Z,3708
2016-07-06T06:00:59.823Z,3608
2016-07-06T06:01:59.829Z,4028
2016-07-06T06:02:59.816Z,4564
2016-07-06T06:03:59.857Z,4156
2016-07-06T06:04:59.880Z,4380
2016-07-06T06:05:59.892Z,4392
2016-07-06T06:06:59.927Z,3936
2016-07-06T06:07:59.926Z,3528
2016-07-06T06:08:59.958Z,3552
2016-07-06T06:09:59.963Z,3684
2016-07-06T06:11:00.004Z,3340
2016-07-06T06:11:59.993Z,3264
2016-07-06T06:13:00.013Z,3052
2016-07-06T06:14:00.040Z,3180
2016-07-06T06:15:00.051Z,3836
2016-07-06T06:16:00.078Z,4164
2016-07-06T06:17:00.094Z,3880
2016-07-06T06:18:00.112Z,3600
2016-07-06T06:19:00.127Z,3276
2016-07-06T06:20:00.161Z,3140
2016-07-06T06:21:00.168Z,2884
2016-07-06T06:22:00.189Z,2972
2016-07-06T06:23:00.189Z,3040
2016-07-06T06:24:00.204Z,2988
2016-07-06T06:25:00.249Z,2640
2016-07-06T06:26:00.263Z,2404
2016-07-06T06:27:00.271Z,2828
2016-07-06T06:28:00.305Z,4328
2016-07-06T06:29:00.311Z,4572
2016-07-06T06:30:00.335Z,4236
2016-07-06T06:31:00.342Z,3708
2016-07-06T06:32:00.363Z,2776
2016-07-06T06:33:00.391Z,2748
2016-07-06T06:34:00.387Z,2904
2016-07-06T06:35:00.409Z,2916
2016-07-06T06:36:00.442Z,2684
2016-07-06T06:37:00.460Z,2864
2016-07-06T06:38:00.448Z,3952
2016-07-06T06:39:00.496Z,4904
2016-07-06T06:40:00.507Z,4800
2016-07-06T06:41:00.524Z,4716
2016-07-06T06:42:00.535Z,4408
2016-07-06T06:43:00.577Z,4704
2016-07-06T06:44:00.583Z,4820
2016-07-06T06:45:00.614Z,4824
2016-07-06T06:46:00.628Z,4684
2016-07-06T06:47:00.635Z,4128
2016-07-06T06:48:00.657Z,3372
2016-07-06T06:49:00.682Z,2968
2016-07-06T06:50:00.686Z,3056
2016-07-06T06:51:00.763Z,3092
2016-07-06T06:52:00.757Z,2992
2016-07-06T06:53:00.766Z,2608
2016-07-06T06:54:00.772Z,2716
2016-07-06T06:55:00.759Z,3556
2016-07-06T06:56:00.798Z,4244
2016-07-06T06:57:00.811Z,4160
2016-07-06T06:58:00.852Z,3844
2016-07-06T06:59:00.863Z,3548
2016-07-06T07:00:00.871Z,3428
2016-07-06T07:01:00.878Z,3636
2016-07-06T07:02:00.910Z,4316
2016-07-06T07:03:00.938Z,4772
2016-07-06T07:04:00.938Z,4860
2016-07-06T07:05:00.974Z,4200
2016-07-06T07:06:00.978Z,3880
2016-07-06T07:07:00.976Z,4404
2016-07-06T07:08:01.017Z,4976
2016-07-06T07:09:01.037Z,5484
2016-07-06T07:10:01.037Z,6420
2016-07-06T07:11:01.043Z,6732
2016-07-06T07:12:01.092Z,7796
2016-07-06T07:13:01.102Z,6796
2016-07-06T07:14:01.140Z,6952
2016-07-06T07:15:01.127Z,7696
2016-07-06T07:16:01.180Z,7780
2016-07-06T07:17:01.184Z,7000
2016-07-06T07:18:01.201Z,9140
2016-07-06T07:19:01.223Z,5960
2016-07-06T07:20:01.249Z,5680
2016-07-06T07:21:01.270Z,5380
2016-07-06T07:22:01.277Z,4720
2016-07-06T07:23:01.294Z,4784
2016-07-06T07:24:01.314Z,5120
2016-07-06T07:25:01.341Z,5496
2016-07-06T07:26:01.336Z,8264
2016-07-06T07:27:01.380Z,7640
2016-07-06T07:28:01.403Z,8580
2016-07-06T07:29:01.427Z,7044
2016-07-06T07:30:01.439Z,9580
2016-07-06T07:31:01.459Z,10036
2016-07-06T07:32:01.479Z,10500
2016-07-06T07:33:01.493Z,7492
2016-07-06T07:34:01.513Z,10040
2016-07-06T07:35:01.543Z,7136
2016-07-06T07:36:01.565Z,8040
2016-07-06T07:37:01.551Z,6820
2016-07-06T07:38:01.578Z,8692
2016-07-06T07:39:01.603Z,5184
2016-07-06T07:40:01.640Z,4452
2016-07-06T07:41:01.654Z,4084
2016-07-06T07:42:01.667Z,3940
2016-07-06T07:43:01.691Z,3984
2016-07-06T07:44:01.749Z,4320
2016-07-06T07:45:01.774Z,5140
2016-07-06T07:46:01.788Z,5820
2016-07-06T07:47:01.817Z,6476
2016-07-06T07:48:01.826Z,7056
2016-07-06T07:49:01.848Z,7176
2016-07-06T07:50:01.854Z,7364
2016-07-06T07:51:01.853Z,7768
2016-07-06T07:52:01.870Z,9516
2016-07-06T07:53:01.871Z,7720
2016-07-06T07:54:01.898Z,6940
2016-07-06T07:55:01.918Z,6328
2016-07-06T07:56:01.945Z,5972
2016-07-06T07:57:01.955Z,5744
2016-07-06T07:58:01.983Z,5680
2016-07-06T07:59:01.986Z,6060
2016-07-06T08:00:02.024Z,6796
2016-07-06T08:01:02.012Z,7504
2016-07-06T08:02:02.067Z,7980
2016-07-06T08:03:02.076Z,8148
2016-07-06T08:04:02.106Z,8096
2016-07-06T08:05:02.115Z,7420
2016-07-06T08:06:02.122Z,6704
2016-07-06T08:07:02.150Z,6704
2016-07-06T08:08:02.176Z,6716
2016-07-06T08:09:02.182Z,6540
2016-07-06T08:10:02.213Z,5924
2016-07-06T08:11:02.221Z,5100
2016-07-06T08:12:02.247Z,4204
2016-07-06T08:13:02.250Z,3712
2016-07-06T08:14:02.280Z,3544
2016-07-06T08:15:02.284Z,3704
2016-07-06T08:16:02.312Z,4028
2016-07-06T08:17:02.331Z,4420
2016-07-06T08:18:02.347Z,4944
2016-07-06T08:19:02.359Z,5660
2016-07-06T08:20:02.377Z,6436
2016-07-06T08:21:02.402Z,7108
2016-07-06T08:22:02.428Z,7464
2016-07-06T08:23:02.446Z,8400
2016-07-06T08:24:02.464Z,11368
2016-07-06T08:25:02.470Z,9532
2016-07-06T08:26:02.517Z,8352
2016-07-06T08:27:02.526Z,7680
2016-07-06T08:28:02.562Z,7472
2016-07-06T08:29:02.582Z,7624
2016-07-06T08:30:02.590Z,7244
2016-07-06T08:31:02.601Z,7336
2016-07-06T08:32:02.629Z,7416
2016-07-06T08:33:02.650Z,6824
2016-07-06T08:34:02.652Z,6852
2016-07-06T08:35:02.665Z,7132
2016-07-06T08:36:02.700Z,7716
2016-07-06T08:37:02.718Z,8772
2016-07-06T08:38:02.755Z,7524
2016-07-06T08:39:02.748Z,5932
2016-07-06T08:40:02.787Z,5400
2016-07-06T08:41:02.782Z,4860
2016-07-06T08:42:02.817Z,4336
2016-07-06T08:43:02.832Z,4092
2016-07-06T08:44:02.851Z,3964
2016-07-06T08:45:02.883Z,3952
2016-07-06T08:46:02.895Z,3980
2016-07-06T08:47:02.906Z,4228
2016-07-06T08:48:02.936Z,4484
2016-07-06T08:49:02.962Z,4460
2016-07-06T08:50:02.985Z,4272
2016-07-06T08:51:03.006Z,4324
2016-07-06T08:52:03.001Z,4928
2016-07-06T08:53:03.019Z,5716
2016-07-06T08:54:03.050Z,6448
2016-07-06T08:55:03.070Z,7032
2016-07-06T08:56:03.089Z,7412
2016-07-06T08:57:03.122Z,8544
2016-07-06T08:58:03.141Z,7952
2016-07-06T08:59:03.149Z,8076
2016-07-06T09:00:03.178Z,9156
2016-07-06T09:01:03.204Z,10488
2016-07-06T09:02:03.216Z,10196
2016-07-06T09:03:03.241Z,10552
2016-07-06T09:04:03.244Z,7236
2016-07-06T09:05:03.268Z,7216
2016-07-06T09:06:03.310Z,7372
2016-07-06T09:07:03.308Z,7228
2016-07-06T09:08:03.332Z,7028
2016-07-06T09:09:03.363Z,6632
2016-07-06T09:10:03.374Z,6364
2016-07-06T09:11:03.393Z,6496
2016-07-06T09:12:03.421Z,7024
2016-07-06T09:13:03.429Z,7544
2016-07-06T09:14:03.457Z,7908
2016-07-06T09:15:03.464Z,8132
2016-07-06T09:16:03.491Z,8184
2016-07-06T09:17:03.509Z,7812
2016-07-06T09:18:03.524Z,7512
2016-07-06T09:19:03.547Z,7708
2016-07-06T09:20:03.563Z,8360
2016-07-06T09:21:03.583Z,7564
2016-07-06T09:22:03.602Z,9908
2016-07-06T09:23:03.618Z,7468
2016-07-06T09:24:03.643Z,6376
2016-07-06T09:25:03.661Z,5876
2016-07-06T09:26:03.689Z,5640
2016-07-06T09:27:03.705Z,5520
2016-07-06T09:28:03.735Z,5624
2016-07-06T09:29:03.732Z,5784
2016-07-06T09:30:03.807Z,6052
2016-07-06T09:31:03.810Z,6432
2016-07-06T09:32:03.809Z,6752
2016-07-06T09:33:03.816Z,9400
2016-07-06T09:34:03.838Z,8204
2016-07-06T09:35:03.857Z,8992
2016-07-06T09:36:03.928Z,11096
2016-07-06T09:37:03.926Z,8428
2016-07-06T09:38:03.955Z,8840
2016-07-06T09:39:03.981Z,8328
2016-07-06T09:40:04.023Z,8308
2016-07-06T09:41:03.968Z,8124
2016-07-06T09:42:03.998Z,7936
2016-07-06T09:43:04.017Z,7968
2016-07-06T09:44:04.039Z,7932
2016-07-06T09:45:04.064Z,8308
2016-07-06T09:46:04.061Z,9880
2016-07-06T09:47:04.084Z,10436
2016-07-06T09:48:04.109Z,9064
2016-07-06T09:49:04.142Z,7644
2016-07-06T09:50:04.147Z,8072
2016-07-06T09:51:04.184Z,7556
2016-07-06T09:52:04.188Z,9096
2016-07-06T09:53:04.223Z,7132
2016-07-06T09:54:04.246Z,7332
2016-07-06T09:55:04.271Z,10456
2016-07-06T09:56:04.261Z,8836
2016-07-06T09:57:04.305Z,10948
2016-07-06T09:58:04.312Z,8492
2016-07-06T09:59:04.344Z,9928
2016-07-06T10:00:04.358Z,8088
2016-07-06T10:01:04.365Z,8528
2016-07-06T10:02:04.379Z,7224
2016-07-06T10:03:04.405Z,7336
2016-07-06T10:04:04.431Z,7680
2016-07-06T10:05:04.459Z,7920
2016-07-06T10:06:04.468Z,10884
2016-07-06T10:07:04.488Z,8496
2016-07-06T10:08:04.514Z,8300
2016-07-06T10:09:04.536Z,8024
2016-07-06T10:10:04.572Z,8300
2016-07-06T10:11:04.578Z,8704
2016-07-06T10:12:04.597Z,8212
2016-07-06T10:13:04.621Z,7536
2016-07-06T10:14:04.637Z,10220
2016-07-06T10:15:04.656Z,9948
2016-07-06T10:16:04.698Z,10040
2016-07-06T10:17:04.710Z,10120
2016-07-06T10:18:04.722Z,10164
2016-07-06T10:19:04.748Z,9984
2016-07-06T10:20:04.770Z,6544
2016-07-06T10:21:04.804Z,6592
2016-07-06T10:22:04.813Z,7064
2016-07-06T10:23:04.835Z,7644
2016-07-06T10:24:04.852Z,8100
2016-07-06T10:25:04.879Z,6508
2016-07-06T10:26:04.899Z,6296
2016-07-06T10:27:04.905Z,6128
2016-07-06T10:28:04.927Z,6212
2016-07-06T10:29:04.960Z,8156
2016-07-06T10:30:04.995Z,7948
2016-07-06T10:31:05.002Z,7428
2016-07-06T10:32:05.015Z,6924
2016-07-06T10:33:05.048Z,9776
2016-07-06T10:34:05.068Z,9856
2016-07-06T10:35:05.086Z,6996
2016-07-06T10:36:05.114Z,9944
2016-07-06T10:37:05.128Z,6816
2016-07-06T10:38:05.164Z,6504
2016-07-06T10:39:05.170Z,6564
2016-07-06T10:40:05.182Z,6828
2016-07-06T10:41:05.212Z,7248
2016-07-06T10:42:05.232Z,8088
2016-07-06T10:43:05.246Z,9164
2016-07-06T10:44:05.280Z,12988
2016-07-06T10:45:05.294Z,13272
2016-07-06T10:46:05.306Z,11036
2016-07-06T10:47:05.335Z,10864
2016-07-06T10:48:05.353Z,11552
2016-07-06T10:49:05.375Z,8556
2016-07-06T10:50:05.407Z,8112
2016-07-06T10:51:05.420Z,7516
2016-07-06T10:52:05.438Z,7168
2016-07-06T10:53:05.464Z,6912
2016-07-06T10:54:05.480Z,6856
2016-07-06T10:55:05.493Z,6864
2016-07-06T10:56:08.675Z,7084
2016-07-06T10:57:05.552Z,7412
2016-07-06T10:58:05.554Z,7780
2016-07-06T10:59:05.654Z,7984
2016-07-06T11:00:05.592Z,7980
2016-07-06T11:01:05.619Z,7736
2016-07-06T11:02:05.657Z,7448
2016-07-06T11:03:05.674Z,7316
2016-07-06T11:04:05.694Z,7320
2016-07-06T11:05:05.704Z,7592
2016-07-06T11:06:05.725Z,7680
2016-07-06T11:07:05.753Z,7984
2016-07-06T11:08:05.772Z,8628
2016-07-06T11:09:05.788Z,12464
2016-07-06T11:10:05.808Z,12880
2016-07-06T11:11:05.839Z,13252
2016-07-06T11:12:05.848Z,10316
2016-07-06T11:13:05.880Z,10004
2016-07-06T11:14:05.945Z,10756
2016-07-06T11:15:05.949Z,9996
2016-07-06T11:16:05.943Z,9912
2016-07-06T11:17:05.950Z,10148
2016-07-06T11:18:05.984Z,10584
2016-07-06T11:19:06.056Z,13588
2016-07-06T11:20:06.056Z,13716
2016-07-06T11:21:06.088Z,13692
2016-07-06T11:22:06.099Z,13556
2016-07-06T11:23:06.134Z,10516
2016-07-06T11:24:06.149Z,10616
2016-07-06T11:25:06.151Z,10688
2016-07-06T11:26:06.162Z,10512
2016-07-06T11:27:06.170Z,10224
2016-07-06T11:28:06.204Z,9700
2016-07-06T11:29:06.212Z,9280
2016-07-06T11:30:06.238Z,8876
2016-07-06T11:31:06.265Z,8484
2016-07-06T11:32:06.239Z,8256
2016-07-06T11:33:06.280Z,8204
2016-07-06T11:34:06.289Z,8128
2016-07-06T11:35:06.332Z,8132
2016-07-06T11:36:06.366Z,8164
2016-07-06T11:37:06.351Z,8152
2016-07-06T11:38:06.396Z,7976
2016-07-06T11:39:06.390Z,7956
2016-07-06T11:40:06.447Z,7892
2016-07-06T11:41:06.461Z,7876
2016-07-06T11:42:06.463Z,7760
2016-07-06T11:43:06.502Z,7520
2016-07-06T11:44:06.495Z,7252
2016-07-06T11:45:06.556Z,7180
2016-07-06T11:46:06.568Z,7120
2016-07-06T11:47:06.563Z,7308
2016-07-06T11:48:06.585Z,7684
2016-07-06T11:49:06.605Z,8080
2016-07-06T11:50:06.636Z,8164
2016-07-06T11:51:06.651Z,8360
2016-07-06T11:52:06.695Z,8740
2016-07-06T11:53:06.693Z,8892
2016-07-06T11:54:06.711Z,8788
2016-07-06T11:55:06.726Z,8560
2016-07-06T11:56:06.751Z,8336
2016-07-06T11:57:06.773Z,8092
2016-07-06T11:58:06.792Z,7848
2016-07-06T11:59:06.811Z,7800
2016-07-06T12:00:06.832Z,7872
2016-07-06T12:01:06.860Z,7892
2016-07-06T12:02:06.871Z,7860
2016-07-06T12:03:06.897Z,7856
2016-07-06T12:04:06.931Z,8008
2016-07-06T12:05:06.975Z,8116
2016-07-06T12:06:06.973Z,8048
2016-07-06T12:07:07.013Z,7944
2016-07-06T12:08:07.034Z,7812
2016-07-06T12:09:07.037Z,7944
2016-07-06T12:10:07.056Z,8176
2016-07-06T12:11:07.085Z,8688
2016-07-06T12:12:07.105Z,9340
2016-07-06T12:13:07.130Z,10020
2016-07-06T12:14:07.156Z,10648
2016-07-06T12:15:07.159Z,10868
2016-07-06T12:16:07.179Z,13004
2016-07-06T12:17:07.182Z,10960
2016-07-06T12:18:07.240Z,11480
2016-07-06T12:19:07.251Z,10308
2016-07-06T12:20:07.257Z,9784
2016-07-06T12:21:07.290Z,9888
2016-07-06T12:22:07.315Z,10452
2016-07-06T12:23:07.347Z,10416
2016-07-06T12:24:07.338Z,10660
2016-07-06T12:25:07.347Z,10688
2016-07-06T12:26:07.413Z,10816
2016-07-06T12:27:07.416Z,11096
2016-07-06T12:28:07.450Z,11340
2016-07-06T12:29:07.461Z,12316
2016-07-06T12:30:08.352Z,12160
2016-07-06T12:31:07.478Z,11760
2016-07-06T12:32:07.516Z,11688
2016-07-06T12:33:07.551Z,11696
2016-07-06T12:34:07.700Z,11616
2016-07-06T12:35:08.215Z,13888
2016-07-06T12:36:07.672Z,12484
2016-07-06T12:37:07.601Z,12448
2016-07-06T12:38:07.657Z,12092
2016-07-06T12:39:07.708Z,11640
2016-07-06T12:40:07.686Z,10700
2016-07-06T12:41:07.703Z,10424
2016-07-06T12:42:07.745Z,10324
2016-07-06T12:43:07.744Z,10072
2016-07-06T12:44:07.778Z,9572
2016-07-06T12:45:07.796Z,8912
2016-07-06T12:46:07.841Z,8352
2016-07-06T12:47:07.837Z,8044
2016-07-06T12:48:07.842Z,8112
2016-07-06T12:49:07.873Z,8764
2016-07-06T12:50:07.903Z,9428
2016-07-06T12:51:07.913Z,9760
2016-07-06T12:52:07.939Z,9868
2016-07-06T12:53:07.963Z,9876
2016-07-06T12:54:07.984Z,9892
2016-07-06T12:55:07.997Z,9684
2016-07-06T12:56:08.038Z,9380
2016-07-06T12:57:08.051Z,9296
2016-07-06T12:58:08.054Z,9504
2016-07-06T12:59:08.087Z,9636
2016-07-06T13:00:08.100Z,9616
2016-07-06T13:01:08.136Z,9476
2016-07-06T13:02:08.164Z,9180
2016-07-06T13:03:08.157Z,8992
2016-07-06T13:04:08.196Z,8932
2016-07-06T13:05:08.222Z,8980
2016-07-06T13:06:08.241Z,9188
2016-07-06T13:07:08.263Z,9268
2016-07-06T13:08:08.271Z,9264
2016-07-06T13:09:08.311Z,9332
2016-07-06T13:10:08.353Z,10152
2016-07-06T13:11:08.351Z,9612
2016-07-06T13:12:08.351Z,9512
2016-07-06T13:13:08.379Z,9596
2016-07-06T13:14:08.415Z,9780
2016-07-06T13:15:08.426Z,10248
2016-07-06T13:16:08.458Z,12216
2016-07-06T13:17:08.467Z,12276
2016-07-06T13:18:08.483Z,11164
2016-07-06T13:19:08.524Z,12808
2016-07-06T13:20:08.522Z,12096
2016-07-06T13:21:08.559Z,11088
2016-07-06T13:22:08.555Z,11476
2016-07-06T13:23:08.603Z,11024
2016-07-06T13:24:08.633Z,15260
2016-07-06T13:25:08.654Z,11600
2016-07-06T13:26:08.660Z,11108
2016-07-06T13:27:08.695Z,11016
2016-07-06T13:28:08.710Z,10852
2016-07-06T13:29:08.732Z,12492
2016-07-06T13:30:08.744Z,11284
2016-07-06T13:31:08.755Z,14792
2016-07-06T13:32:08.779Z,11556
2016-07-06T13:33:08.804Z,12220
2016-07-06T13:34:08.817Z,11064
2016-07-06T13:35:08.830Z,11544
2016-07-06T13:36:08.875Z,13280
2016-07-06T13:37:08.876Z,11936
2016-07-06T13:38:08.908Z,10728
2016-07-06T13:39:08.927Z,10460